E.r. Bern — A8XQ5 — position and weather

sailwx.info

Track history (hours):
 
Tides and Currents Weather Stations Pressure Air Temp Water Temp Dewpoint Dewpoint Depression Visibility Wind Speed Wind Dir Waves Ship Positions

E.r. Bern

Last reported at 2015-Mar-01 09:06 UTC. Time now 2015-Mar-01 12:30 UTC.
Position N 57°01' E 007°60'.

Length 187 m; draft 9.1 m.

Type: Cargo ship. MMSI: 636092150.

Date/timePositionNaut miles runAvg speedWind from/ knotsBaromVisibWave heightAir tempDewpointWater temp
2015-Mar-01 09:06N 57°01' E 007°60'5 7.7
2015-Mar-01 08:24N 57°06' E 008°05'6 6.5
2015-Mar-01 07:33N 57°11' E 008°11'16 7.7
2015-Mar-01 05:33N 57°21' E 008°32'65 9.2
2015-Feb-28 22:30N 57°48' E 010°22'1010.2
2015-Feb-28 21:33N 57°49' E 010°40'1111.3
2015-Feb-28 20:33N 57°42' E 010°57'1413.8
2015-Feb-28 19:33N 57°33' E 011°16'1313.2
2015-Feb-28 18:33N 57°22' E 011°29'1313.4
2015-Feb-28 17:33N 57°09' E 011°38'1313.3
2015-Feb-28 16:33N 56°57' E 011°46'1312.9
2015-Feb-28 15:33N 56°45' E 011°53'1313.0
2015-Feb-28 14:33N 56°33' E 011°41'11012.2
2015-Feb-28 05:32N 54°47' E 010°53'1111.4
2015-Feb-28 04:33N 54°38' E 011°05'1312.9
2015-Feb-28 03:33N 54°32' E 011°25'1212.2
2015-Feb-28 02:33N 54°27' E 011°44'1211.8
2015-Feb-28 01:33N 54°27' E 012°04'1110.9
2015-Feb-28 00:32N 54°35' E 012°16'1212.6
2015-Feb-27 23:33N 54°43' E 012°32'1812.7
2015-Feb-27 22:10N 54°51' E 012°60'812.6
2015-Feb-27 21:33N 54°53' E 013°12'1312.5
2015-Feb-27 20:33N 54°58' E 013°33'1312.8
2015-Feb-27 19:33N 55°02' E 013°54'1212.3
2015-Feb-27 18:33N 55°09' E 014°12'1313.0
2015-Feb-27 17:33N 55°19' E 014°25'1312.6
2015-Feb-27 16:33N 55°28' E 014°41'1313.1
2015-Feb-27 15:33N 55°35' E 015°01'1312.7
2015-Feb-27 14:33N 55°41' E 015°20'34312.2
2015-Feb-26 10:31N 59°36' E 023°08'1212.6
2015-Feb-26 09:33N 59°39' E 023°31'1312.7
2015-Feb-26 08:33N 59°43' E 023°55'1512.7
2015-Feb-26 07:22N 59°47' E 024°23'3912.2
2015-Feb-26 04:08N 59°54' E 025°41'712.1
2015-Feb-26 03:32N 59°56' E 025°55'1212.2
2015-Feb-26 02:34N 59°59' E 026°18'1212.1
2015-Feb-26 01:33N 60°01' E 026°42'1312.0
2015-Feb-26 00:29N 60°01' E 027°07'1212.2
2015-Feb-25 23:33N 60°07' E 027°27'79 9.8
2015-Feb-25 15:29N 59°55' E 030°04'5 5.5
2015-Feb-25 14:33N 59°54' E 030°14'1 0.9
2015-Feb-25 13:31N 59°55' E 030°15'0 0.0
2015-Feb-25 12:31N 59°55' E 030°15'0 0.0
2015-Feb-25 11:31N 59°55' E 030°15'0 0.0
2015-Feb-25 10:31N 59°55' E 030°15'0 0.0
2015-Feb-25 09:31N 59°55' E 030°15'0 0.0
2015-Feb-25 08:31N 59°55' E 030°15'0 0.0
2015-Feb-25 07:28N 59°55' E 030°15'0 0.0
2015-Feb-25 06:31N 59°55' E 030°15'0 0.0
2015-Feb-25 05:31N 59°55' E 030°15'0 0.0
2015-Feb-25 04:31N 59°55' E 030°15'0 0.0
2015-Feb-25 03:31N 59°55' E 030°15'0 0.0
2015-Feb-25 02:31N 59°55' E 030°15'0 0.0
2015-Feb-25 01:31N 59°55' E 030°15'0 0.0
2015-Feb-25 00:31N 59°55' E 030°15'0 0.0
2015-Feb-24 23:31N 59°55' E 030°15'0 0.0
2015-Feb-24 22:31N 59°55' E 030°15'0 0.0
2015-Feb-24 21:31N 59°55' E 030°15'0 0.0
2015-Feb-24 20:31N 59°55' E 030°15'0 0.0
2015-Feb-24 19:31N 59°55' E 030°15'0 0.0
2015-Feb-24 18:31N 59°55' E 030°15'0 0.0
2015-Feb-24 17:31N 59°55' E 030°15'0 0.0
2015-Feb-24 16:31N 59°55' E 030°15'0 0.0
2015-Feb-24 15:31N 59°55' E 030°15'0 0.0
2015-Feb-24 14:31N 59°55' E 030°15'0 0.0
2015-Feb-24 13:31N 59°55' E 030°15'0 0.0
2015-Feb-24 12:34N 59°55' E 030°15'0 0.0
2015-Feb-24 11:31N 59°55' E 030°15'0 0.0
2015-Feb-24 10:31N 59°55' E 030°15'0 0.0
2015-Feb-24 09:34N 59°55' E 030°15'0 0.0
2015-Feb-24 08:31N 59°55' E 030°15'0 0.0
2015-Feb-24 07:10N 59°55' E 030°15'0 0.0
2015-Feb-24 06:33N 59°55' E 030°15'0 0.0
2015-Feb-24 05:34N 59°55' E 030°15'0 0.0
2015-Feb-24 04:31N 59°55' E 030°15'0 0.0
2015-Feb-24 03:31N 59°55' E 030°15'0 0.0
2015-Feb-24 02:31N 59°55' E 030°15'0 0.0
2015-Feb-24 01:31N 59°55' E 030°15'0 0.0
2015-Feb-24 00:30N 59°55' E 030°15'0 0.0
2015-Feb-23 23:34N 59°55' E 030°15'0 0.0
2015-Feb-23 22:33N 59°55' E 030°15'0 0.0
2015-Feb-23 21:31N 59°55' E 030°15'0 0.0
2015-Feb-23 20:30N 59°55' E 030°15'0 0.0
2015-Feb-23 19:33N 59°55' E 030°15'0 0.0
2015-Feb-23 18:34N 59°55' E 030°15'0 0.0
2015-Feb-23 17:33N 59°55' E 030°15'0 0.0
2015-Feb-23 16:30N 59°55' E 030°15'0 0.0
2015-Feb-23 15:33N 59°55' E 030°15'0 0.0
2015-Feb-23 14:34N 59°55' E 030°15'0 0.0
2015-Feb-23 13:34N 59°55' E 030°15'0 0.0
2015-Feb-23 12:30N 59°55' E 030°15'0 0.0
2015-Feb-23 11:33N 59°55' E 030°15'0 0.0
2015-Feb-23 10:33N 59°55' E 030°15'0 0.0
2015-Feb-23 09:31N 59°55' E 030°15'0 0.0
2015-Feb-23 08:33N 59°55' E 030°15'0 0.0
2015-Feb-23 07:33N 59°55' E 030°15'0 0.0
2015-Feb-23 06:33N 59°55' E 030°15'0 0.0
2015-Feb-23 05:34N 59°55' E 030°15'0 0.0
2015-Feb-23 04:33N 59°55' E 030°15'0 0.0
2015-Feb-23 03:34N 59°55' E 030°15'0 0.0
2015-Feb-23 02:33N 59°55' E 030°15'0 0.0
2015-Feb-23 01:30N 59°55' E 030°15'0 0.0
2015-Feb-23 00:33N 59°55' E 030°15'0 0.0
2015-Feb-22 23:33N 59°55' E 030°15'0 0.0
2015-Feb-22 22:33N 59°55' E 030°15'0 0.0
2015-Feb-22 21:33N 59°55' E 030°15'0 0.0
2015-Feb-22 20:33N 59°55' E 030°15'0 0.0
2015-Feb-22 19:33N 59°55' E 030°15'0 0.0
2015-Feb-22 18:33N 59°55' E 030°15'0 0.0
2015-Feb-22 17:33N 59°55' E 030°15'0 0.0
2015-Feb-22 16:33N 59°55' E 030°15'0 0.0
2015-Feb-22 15:33N 59°55' E 030°15'0 0.0
2015-Feb-22 14:33N 59°55' E 030°15'0 0.0
2015-Feb-22 13:33N 59°55' E 030°15'0 0.0
2015-Feb-22 12:33N 59°55' E 030°15'0 0.0
2015-Feb-22 11:33N 59°55' E 030°15'0 0.0
2015-Feb-22 10:30N 59°55' E 030°15'0 0.0
2015-Feb-22 09:33N 59°55' E 030°15'0 0.0
2015-Feb-22 08:33N 59°55' E 030°15'0 0.0
2015-Feb-22 07:33N 59°55' E 030°15'0 0.0
2015-Feb-22 06:33N 59°55' E 030°15'0 0.0
2015-Feb-22 05:33N 59°55' E 030°15'0 0.0
2015-Feb-22 04:33N 59°55' E 030°15'0 0.0
2015-Feb-22 03:33N 59°55' E 030°15'0 0.0
2015-Feb-22 02:30N 59°55' E 030°15'0 0.0
2015-Feb-22 01:33N 59°55' E 030°15'0 0.0
2015-Feb-22 00:33N 59°55' E 030°15'0 0.0
2015-Feb-21 23:33N 59°55' E 030°15'0 0.0
2015-Feb-21 22:30N 59°55' E 030°15'0 0.0
2015-Feb-21 21:33N 59°55' E 030°15'0 0.0
2015-Feb-21 20:33N 59°55' E 030°15'0 0.0
2015-Feb-21 19:33N 59°55' E 030°15'0 0.0
2015-Feb-21 18:33N 59°55' E 030°15'0 0.0
2015-Feb-21 17:33N 59°55' E 030°15'0 0.0
2015-Feb-21 16:27N 59°55' E 030°15'0 0.0
2015-Feb-21 15:33N 59°55' E 030°15'0 0.0
2015-Feb-21 14:33N 59°55' E 030°15'0 0.0
2015-Feb-21 13:33N 59°55' E 030°15'0 0.0
2015-Feb-21 12:33N 59°55' E 030°15'0 0.0
2015-Feb-21 11:33N 59°55' E 030°15'0 0.0
2015-Feb-21 10:33N 59°55' E 030°15'0 0.0
2015-Feb-21 09:33N 59°55' E 030°15'0 0.0
2015-Feb-21 08:33N 59°55' E 030°15'0 0.0
2015-Feb-21 07:33N 59°55' E 030°15'0 0.0
2015-Feb-21 06:33N 59°55' E 030°15'0 0.0
2015-Feb-21 05:33N 59°55' E 030°15'0 0.0
2015-Feb-21 04:33N 59°55' E 030°15'0 0.0
2015-Feb-21 03:33N 59°55' E 030°15'0 0.0
2015-Feb-21 02:33N 59°55' E 030°15'0 0.0
2015-Feb-21 01:33N 59°55' E 030°15'0 0.0
2015-Feb-21 00:33N 59°55' E 030°15'0 0.0
2015-Feb-20 23:33N 59°55' E 030°15'0 0.0
2015-Feb-20 22:33N 59°55' E 030°15'0 0.0
2015-Feb-20 21:33N 59°55' E 030°15'0 0.0
2015-Feb-20 20:33N 59°55' E 030°15'0 0.0
2015-Feb-20 19:33N 59°55' E 030°15'0 0.0
2015-Feb-20 18:33N 59°55' E 030°15'0 0.0
2015-Feb-20 17:33N 59°55' E 030°15'0 0.0
2015-Feb-20 16:33N 59°55' E 030°15'0 0.0
2015-Feb-20 15:33N 59°55' E 030°15'0 0.0
2015-Feb-20 14:33N 59°55' E 030°15'0 0.0
2015-Feb-20 13:33N 59°55' E 030°15'0 0.0
2015-Feb-20 12:33N 59°55' E 030°15'0 0.0
2015-Feb-20 11:33N 59°55' E 030°15'0 0.0
2015-Feb-20 10:33N 59°55' E 030°15'0 0.0
2015-Feb-20 09:30N 59°55' E 030°15'0 0.0
2015-Feb-20 08:30N 59°55' E 030°15'0 0.0
2015-Feb-20 07:30N 59°55' E 030°15'0 0.0
2015-Feb-20 06:33N 59°55' E 030°15'0 0.0
2015-Feb-20 05:33N 59°55' E 030°15'0 0.0
2015-Feb-20 04:33N 59°55' E 030°15'0 0.0
2015-Feb-20 03:33N 59°55' E 030°15'0 0.0
2015-Feb-20 02:30N 59°55' E 030°15'0 0.0
2015-Feb-20 01:33N 59°55' E 030°15'0 0.0
2015-Feb-20 00:33N 59°55' E 030°15'0 0.0
2015-Feb-19 23:33N 59°55' E 030°15'0 0.0
2015-Feb-19 22:33N 59°55' E 030°15'0 0.0
2015-Feb-19 21:33N 59°55' E 030°15'0 0.0
2015-Feb-19 20:33N 59°55' E 030°15'0 0.0
2015-Feb-19 19:30N 59°55' E 030°15'0 0.0
2015-Feb-19 18:33N 59°55' E 030°15'0 0.0
2015-Feb-19 17:33N 59°55' E 030°15'0 0.0
2015-Feb-19 16:33N 59°55' E 030°15'0 0.0
2015-Feb-19 15:30N 59°55' E 030°15'0 0.0
2015-Feb-19 14:33N 59°55' E 030°15'0 0.0
2015-Feb-19 13:33N 59°55' E 030°15'0 0.0
2015-Feb-19 12:30N 59°55' E 030°15'0 0.0
2015-Feb-19 11:33N 59°55' E 030°15'0 0.0
2015-Feb-19 10:15N 59°55' E 030°15'0 0.0
2015-Feb-19 09:33N 59°55' E 030°15'  
Track history (hours):
 
Tides and Currents Weather Stations Pressure Air Temp Water Temp Dewpoint Dewpoint Depression Visibility Wind Speed Wind Dir Waves Ship Positions

E.r. Bern

Last reported at 2015-Mar-01 09:06 UTC. Time now 2015-Mar-01 12:30 UTC.
Position N 57°01' E 007°60'.

Length 187 m; draft 9.1 m.

Type: Cargo ship. MMSI: 636092150.

Date/timePositionNaut miles runAvg speedWind from/ knotsBaromVisibWave heightAir tempDewpointWater temp
2015-Mar-01 09:06N 57°01' E 007°60'5 7.7
2015-Mar-01 08:24N 57°06' E 008°05'6 6.5
2015-Mar-01 07:33N 57°11' E 008°11'16 7.7
2015-Mar-01 05:33N 57°21' E 008°32'65 9.2
2015-Feb-28 22:30N 57°48' E 010°22'1010.2
2015-Feb-28 21:33N 57°49' E 010°40'1111.3
2015-Feb-28 20:33N 57°42' E 010°57'1413.8
2015-Feb-28 19:33N 57°33' E 011°16'1313.2
2015-Feb-28 18:33N 57°22' E 011°29'1313.4
2015-Feb-28 17:33N 57°09' E 011°38'1313.3
2015-Feb-28 16:33N 56°57' E 011°46'1312.9
2015-Feb-28 15:33N 56°45' E 011°53'1313.0
2015-Feb-28 14:33N 56°33' E 011°41'11012.2
2015-Feb-28 05:32N 54°47' E 010°53'1111.4
2015-Feb-28 04:33N 54°38' E 011°05'1312.9
2015-Feb-28 03:33N 54°32' E 011°25'1212.2
2015-Feb-28 02:33N 54°27' E 011°44'1211.8
2015-Feb-28 01:33N 54°27' E 012°04'1110.9
2015-Feb-28 00:32N 54°35' E 012°16'1212.6
2015-Feb-27 23:33N 54°43' E 012°32'1812.7
2015-Feb-27 22:10N 54°51' E 012°60'812.6
2015-Feb-27 21:33N 54°53' E 013°12'1312.5
2015-Feb-27 20:33N 54°58' E 013°33'1312.8
2015-Feb-27 19:33N 55°02' E 013°54'1212.3
2015-Feb-27 18:33N 55°09' E 014°12'1313.0
2015-Feb-27 17:33N 55°19' E 014°25'1312.6
2015-Feb-27 16:33N 55°28' E 014°41'1313.1
2015-Feb-27 15:33N 55°35' E 015°01'1312.7
2015-Feb-27 14:33N 55°41' E 015°20'34312.2
2015-Feb-26 10:31N 59°36' E 023°08'1212.6
2015-Feb-26 09:33N 59°39' E 023°31'1312.7
2015-Feb-26 08:33N 59°43' E 023°55'1512.7
2015-Feb-26 07:22N 59°47' E 024°23'3912.2
2015-Feb-26 04:08N 59°54' E 025°41'712.1
2015-Feb-26 03:32N 59°56' E 025°55'1212.2
2015-Feb-26 02:34N 59°59' E 026°18'1212.1
2015-Feb-26 01:33N 60°01' E 026°42'1312.0
2015-Feb-26 00:29N 60°01' E 027°07'1212.2
2015-Feb-25 23:33N 60°07' E 027°27'79 9.8
2015-Feb-25 15:29N 59°55' E 030°04'5 5.5
2015-Feb-25 14:33N 59°54' E 030°14'1 0.9
2015-Feb-25 13:31N 59°55' E 030°15'0 0.0
2015-Feb-25 12:31N 59°55' E 030°15'0 0.0
2015-Feb-25 11:31N 59°55' E 030°15'0 0.0
2015-Feb-25 10:31N 59°55' E 030°15'0 0.0
2015-Feb-25 09:31N 59°55' E 030°15'0 0.0
2015-Feb-25 08:31N 59°55' E 030°15'0 0.0
2015-Feb-25 07:28N 59°55' E 030°15'0 0.0
2015-Feb-25 06:31N 59°55' E 030°15'0 0.0
2015-Feb-25 05:31N 59°55' E 030°15'0 0.0
2015-Feb-25 04:31N 59°55' E 030°15'0 0.0
2015-Feb-25 03:31N 59°55' E 030°15'0 0.0
2015-Feb-25 02:31N 59°55' E 030°15'0 0.0
2015-Feb-25 01:31N 59°55' E 030°15'0 0.0
2015-Feb-25 00:31N 59°55' E 030°15'0 0.0
2015-Feb-24 23:31N 59°55' E 030°15'0 0.0
2015-Feb-24 22:31N 59°55' E 030°15'0 0.0
2015-Feb-24 21:31N 59°55' E 030°15'0 0.0
2015-Feb-24 20:31N 59°55' E 030°15'0 0.0
2015-Feb-24 19:31N 59°55' E 030°15'0 0.0
2015-Feb-24 18:31N 59°55' E 030°15'0 0.0
2015-Feb-24 17:31N 59°55' E 030°15'0 0.0
2015-Feb-24 16:31N 59°55' E 030°15'0 0.0
2015-Feb-24 15:31N 59°55' E 030°15'0 0.0
2015-Feb-24 14:31N 59°55' E 030°15'0 0.0
2015-Feb-24 13:31N 59°55' E 030°15'0 0.0
2015-Feb-24 12:34N 59°55' E 030°15'0 0.0
2015-Feb-24 11:31N 59°55' E 030°15'0 0.0
2015-Feb-24 10:31N 59°55' E 030°15'0 0.0
2015-Feb-24 09:34N 59°55' E 030°15'0 0.0
2015-Feb-24 08:31N 59°55' E 030°15'0 0.0
2015-Feb-24 07:10N 59°55' E 030°15'0 0.0
2015-Feb-24 06:33N 59°55' E 030°15'0 0.0
2015-Feb-24 05:34N 59°55' E 030°15'0 0.0
2015-Feb-24 04:31N 59°55' E 030°15'0 0.0
2015-Feb-24 03:31N 59°55' E 030°15'0 0.0
2015-Feb-24 02:31N 59°55' E 030°15'0 0.0
2015-Feb-24 01:31N 59°55' E 030°15'0 0.0
2015-Feb-24 00:30N 59°55' E 030°15'0 0.0
2015-Feb-23 23:34N 59°55' E 030°15'0 0.0
2015-Feb-23 22:33N 59°55' E 030°15'0 0.0
2015-Feb-23 21:31N 59°55' E 030°15'0 0.0
2015-Feb-23 20:30N 59°55' E 030°15'0 0.0
2015-Feb-23 19:33N 59°55' E 030°15'0 0.0
2015-Feb-23 18:34N 59°55' E 030°15'0 0.0
2015-Feb-23 17:33N 59°55' E 030°15'0 0.0
2015-Feb-23 16:30N 59°55' E 030°15'0 0.0
2015-Feb-23 15:33N 59°55' E 030°15'0 0.0
2015-Feb-23 14:34N 59°55' E 030°15'0 0.0
2015-Feb-23 13:34N 59°55' E 030°15'0 0.0
2015-Feb-23 12:30N 59°55' E 030°15'0 0.0
2015-Feb-23 11:33N 59°55' E 030°15'0 0.0
2015-Feb-23 10:33N 59°55' E 030°15'0 0.0
2015-Feb-23 09:31N 59°55' E 030°15'0 0.0
2015-Feb-23 08:33N 59°55' E 030°15'0 0.0
2015-Feb-23 07:33N 59°55' E 030°15'0 0.0
2015-Feb-23 06:33N 59°55' E 030°15'0 0.0
2015-Feb-23 05:34N 59°55' E 030°15'0 0.0
2015-Feb-23 04:33N 59°55' E 030°15'0 0.0
2015-Feb-23 03:34N 59°55' E 030°15'0 0.0
2015-Feb-23 02:33N 59°55' E 030°15'0 0.0
2015-Feb-23 01:30N 59°55' E 030°15'0 0.0
2015-Feb-23 00:33N 59°55' E 030°15'0 0.0
2015-Feb-22 23:33N 59°55' E 030°15'0 0.0
2015-Feb-22 22:33N 59°55' E 030°15'0 0.0
2015-Feb-22 21:33N 59°55' E 030°15'0 0.0
2015-Feb-22 20:33N 59°55' E 030°15'0 0.0
2015-Feb-22 19:33N 59°55' E 030°15'0 0.0
2015-Feb-22 18:33N 59°55' E 030°15'0 0.0
2015-Feb-22 17:33N 59°55' E 030°15'0 0.0
2015-Feb-22 16:33N 59°55' E 030°15'0 0.0
2015-Feb-22 15:33N 59°55' E 030°15'0 0.0
2015-Feb-22 14:33N 59°55' E 030°15'0 0.0
2015-Feb-22 13:33N 59°55' E 030°15'0 0.0
2015-Feb-22 12:33N 59°55' E 030°15'0 0.0
2015-Feb-22 11:33N 59°55' E 030°15'0 0.0
2015-Feb-22 10:30N 59°55' E 030°15'0 0.0
2015-Feb-22 09:33N 59°55' E 030°15'0 0.0
2015-Feb-22 08:33N 59°55' E 030°15'0 0.0
2015-Feb-22 07:33N 59°55' E 030°15'0 0.0
2015-Feb-22 06:33N 59°55' E 030°15'0 0.0
2015-Feb-22 05:33N 59°55' E 030°15'0 0.0
2015-Feb-22 04:33N 59°55' E 030°15'0 0.0
2015-Feb-22 03:33N 59°55' E 030°15'0 0.0
2015-Feb-22 02:30N 59°55' E 030°15'0 0.0
2015-Feb-22 01:33N 59°55' E 030°15'0 0.0
2015-Feb-22 00:33N 59°55' E 030°15'0 0.0
2015-Feb-21 23:33N 59°55' E 030°15'0 0.0
2015-Feb-21 22:30N 59°55' E 030°15'0 0.0
2015-Feb-21 21:33N 59°55' E 030°15'0 0.0
2015-Feb-21 20:33N 59°55' E 030°15'0 0.0
2015-Feb-21 19:33N 59°55' E 030°15'0 0.0
2015-Feb-21 18:33N 59°55' E 030°15'0 0.0
2015-Feb-21 17:33N 59°55' E 030°15'0 0.0
2015-Feb-21 16:27N 59°55' E 030°15'0 0.0
2015-Feb-21 15:33N 59°55' E 030°15'0 0.0
2015-Feb-21 14:33N 59°55' E 030°15'0 0.0
2015-Feb-21 13:33N 59°55' E 030°15'0 0.0
2015-Feb-21 12:33N 59°55' E 030°15'0 0.0
2015-Feb-21 11:33N 59°55' E 030°15'0 0.0
2015-Feb-21 10:33N 59°55' E 030°15'0 0.0
2015-Feb-21 09:33N 59°55' E 030°15'0 0.0
2015-Feb-21 08:33N 59°55' E 030°15'0 0.0
2015-Feb-21 07:33N 59°55' E 030°15'0 0.0
2015-Feb-21 06:33N 59°55' E 030°15'0 0.0
2015-Feb-21 05:33N 59°55' E 030°15'0 0.0
2015-Feb-21 04:33N 59°55' E 030°15'0 0.0
2015-Feb-21 03:33N 59°55' E 030°15'0 0.0
2015-Feb-21 02:33N 59°55' E 030°15'0 0.0
2015-Feb-21 01:33N 59°55' E 030°15'0 0.0
2015-Feb-21 00:33N 59°55' E 030°15'0 0.0
2015-Feb-20 23:33N 59°55' E 030°15'0 0.0
2015-Feb-20 22:33N 59°55' E 030°15'0 0.0
2015-Feb-20 21:33N 59°55' E 030°15'0 0.0
2015-Feb-20 20:33N 59°55' E 030°15'0 0.0
2015-Feb-20 19:33N 59°55' E 030°15'0 0.0
2015-Feb-20 18:33N 59°55' E 030°15'0 0.0
2015-Feb-20 17:33N 59°55' E 030°15'0 0.0
2015-Feb-20 16:33N 59°55' E 030°15'0 0.0
2015-Feb-20 15:33N 59°55' E 030°15'0 0.0
2015-Feb-20 14:33N 59°55' E 030°15'0 0.0
2015-Feb-20 13:33N 59°55' E 030°15'0 0.0
2015-Feb-20 12:33N 59°55' E 030°15'0 0.0
2015-Feb-20 11:33N 59°55' E 030°15'0 0.0
2015-Feb-20 10:33N 59°55' E 030°15'0 0.0
2015-Feb-20 09:30N 59°55' E 030°15'0 0.0
2015-Feb-20 08:30N 59°55' E 030°15'0 0.0
2015-Feb-20 07:30N 59°55' E 030°15'0 0.0
2015-Feb-20 06:33N 59°55' E 030°15'0 0.0
2015-Feb-20 05:33N 59°55' E 030°15'0 0.0
2015-Feb-20 04:33N 59°55' E 030°15'0 0.0
2015-Feb-20 03:33N 59°55' E 030°15'0 0.0
2015-Feb-20 02:30N 59°55' E 030°15'0 0.0
2015-Feb-20 01:33N 59°55' E 030°15'0 0.0
2015-Feb-20 00:33N 59°55' E 030°15'0 0.0
2015-Feb-19 23:33N 59°55' E 030°15'0 0.0
2015-Feb-19 22:33N 59°55' E 030°15'0 0.0
2015-Feb-19 21:33N 59°55' E 030°15'0 0.0
2015-Feb-19 20:33N 59°55' E 030°15'0 0.0
2015-Feb-19 19:30N 59°55' E 030°15'0 0.0
2015-Feb-19 18:33N 59°55' E 030°15'0 0.0
2015-Feb-19 17:33N 59°55' E 030°15'0 0.0
2015-Feb-19 16:33N 59°55' E 030°15'0 0.0
2015-Feb-19 15:30N 59°55' E 030°15'0 0.0
2015-Feb-19 14:33N 59°55' E 030°15'0 0.0
2015-Feb-19 13:33N 59°55' E 030°15'0 0.0
2015-Feb-19 12:30N 59°55' E 030°15'0 0.0
2015-Feb-19 11:33N 59°55' E 030°15'0 0.0
2015-Feb-19 10:15N 59°55' E 030°15'0 0.0
2015-Feb-19 09:33N 59°55' E 030°15'  

Dump ship's entire track history